Time;durP1;ratioP1;P1;durP2;ratioP2;P2;SDS_P1;SDS_P2;PMS_P1;PMS_P2;Temp;Humidity;BMP_temperature;BMP_pressure;BME280_temperature;BME280_humidity;BME280_pressure;Samples;Min_cycle;Max_cycle;Signal;HPM_P1;HPM_P2
2021/03/28 00:01:19;;;;;;;92.20;49.55;;;;;;;1.28;80.74;96150.38;5067397;28;20040;-70
2021/03/28 00:04:10;;;;;;;87.47;51.28;;;;;;;1.26;81.11;96152.28;5065236;28;20130;-70
2021/03/28 00:07:01;;;;;;;91.72;47.67;;;;;;;1.29;81.12;96157.13;5062741;28;20064;-70
2021/03/28 00:09:41;;;;;;;66.70;39.00;;;;;;;1.29;81.63;96159.69;5062024;28;20052;-70
2021/03/28 00:12:21;;;;;;;62.22;35.30;;;;;;;1.32;81.86;96156.84;5065996;28;20051;-70
2021/03/28 00:14:56;;;;;;;54.58;33.30;;;;;;;1.38;81.15;96146.97;5066842;28;20127;-70
2021/03/28 00:17:50;;;;;;;55.90;32.88;;;;;;;1.36;80.58;96154.81;5065605;28;20048;-70
2021/03/28 00:20:17;;;;;;;50.58;29.30;;;;;;;1.31;79.55;96155.25;5062519;28;20057;-69
2021/03/28 00:22:59;;;;;;;49.95;29.17;;;;;;;1.30;78.85;96158.75;5067755;28;20032;-69
2021/03/28 00:25:37;;;;;;;52.65;32.08;;;;;;;1.23;78.97;96167.97;5066656;28;20040;-69
2021/03/28 00:28:10;;;;;;;47.08;25.70;;;;;;;0.01;83.89;96156.56;5066580;28;20737;-69
2021/03/28 00:30:40;;;;;;;47.30;26.05;;;;;;;0.22;83.93;96161.56;5066930;28;22059;-70
2021/03/28 00:33:09;;;;;;;41.85;23.67;;;;;;;0.40;82.73;96165.13;5066723;28;20049;-70
2021/03/28 00:35:59;;;;;;;39.97;22.35;;;;;;;0.36;81.80;96141.50;5067989;28;20044;-70
2021/03/28 00:38:49;;;;;;;43.38;21.58;;;;;;;0.55;81.39;96157.81;5066467;28;20048;-70
2021/03/28 00:41:21;;;;;;;35.40;21.05;;;;;;;0.62;80.97;96158.09;5065285;28;20028;-69
2021/03/28 00:44:10;;;;;;;36.45;21.88;;;;;;;0.55;80.81;96155.25;5066300;28;20052;-69
2021/03/28 00:46:43;;;;;;;62.22;32.25;;;;;;;0.49;81.24;96154.03;5066183;28;20403;-70
2021/03/28 00:49:21;;;;;;;43.58;23.00;;;;;;;0.36;82.12;96156.06;5065163;28;20054;-69
2021/03/28 00:51:53;;;;;;;45.55;22.38;;;;;;;0.47;81.90;96149.97;5065043;28;20159;-70
2021/03/28 00:54:33;;;;;;;39.33;21.00;;;;;;;0.54;82.72;96151.88;5066172;28;20571;-69
2021/03/28 00:57:03;;;;;;;37.70;21.95;;;;;;;0.57;82.45;96155.91;5064721;28;20068;-69
2021/03/28 00:59:58;;;;;;;42.40;20.63;;;;;;;0.64;82.75;96162.13;5063631;28;20076;-69
2021/03/28 01:02:40;;;;;;;41.35;23.10;;;;;;;0.68;82.59;96167.78;5063839;28;20032;-69
2021/03/28 01:05:09;;;;;;;46.20;23.83;;;;;;;0.63;84.08;96162.25;5066502;28;20060;-69
2021/03/28 01:07:52;;;;;;;42.67;23.10;;;;;;;0.71;83.25;96167.53;5066026;28;20037;-69
2021/03/28 01:10:43;;;;;;;42.88;23.38;;;;;;;0.51;85.23;96164.97;5065887;28;20072;-69
2021/03/28 01:13:46;;;;;;;74.43;32.38;;;;;;;0.48;85.48;96167.78;5065758;28;20406;-69
2021/03/28 01:16:20;;;;;;;134.20;52.78;;;;;;;0.34;85.46;96140.00;5053392;28;20068;-69
2021/03/28 01:19:12;;;;;;;79.97;37.25;;;;;;;0.47;85.54;96171.31;5065886;28;20040;-69
2021/03/28 01:21:57;;;;;;;72.07;36.30;;;;;;;0.50;85.23;96176.16;5044864;28;20127;-69
2021/03/28 01:24:34;;;;;;;;;;;;;;;0.59;84.55;96171.16;5066022;28;20044;-69
2021/03/28 01:27:29;;;;;;;122.38;46.15;;;;;;;0.66;83.51;96159.44;5065704;28;20385;-69
2021/03/28 01:29:58;;;;;;;73.43;33.78;;;;;;;0.40;84.90;96165.13;5064552;28;20045;-69
2021/03/28 01:32:33;;;;;;;67.13;31.48;;;;;;;0.47;84.33;96161.06;5065554;28;20047;-69
2021/03/28 01:35:19;;;;;;;60.88;26.83;;;;;;;0.51;83.20;96157.28;5065669;28;20044;-69
2021/03/28 01:37:57;;;;;;;48.13;23.80;;;;;;;0.24;83.79;96169.97;5065660;28;20042;-69
2021/03/28 01:40:38;;;;;;;59.15;30.02;;;;;;;-0.07;86.09;96172.63;5065612;28;20032;-69
2021/03/28 01:43:20;;;;;;;54.60;23.55;;;;;;;-0.11;86.90;96176.34;5064222;28;20583;-69
2021/03/28 01:45:50;;;;;;;52.55;25.13;;;;;;;-0.24;87.53;96166.34;5065086;28;20584;-68
2021/03/28 01:48:49;;;;;;;39.13;21.02;;;;;;;-0.12;86.84;96165.31;5065424;28;20040;-69
2021/03/28 01:51:21;;;;;;;40.05;20.65;;;;;;;0.00;85.68;96163.47;5064167;28;20043;-69
2021/03/28 01:54:25;;;;;;;39.95;19.40;;;;;;;0.09;84.59;96170.34;5065393;28;20583;-69
2021/03/28 01:56:59;;;;;;;39.40;20.00;;;;;;;0.04;83.50;96159.69;5063592;28;20043;-69
2021/03/28 01:59:38;;;;;;;40.88;21.70;;;;;;;0.14;82.38;96165.63;5065455;28;21908;-69
2021/03/28 02:02:23;;;;;;;35.47;20.13;;;;;;;0.13;81.54;96169.13;5065179;28;20493;-68
2021/03/28 02:05:17;;;;;;;34.72;20.35;;;;;;;0.09;81.22;96167.78;5065516;28;20036;-68
2021/03/28 02:08:07;;;;;;;35.38;20.13;;;;;;;0.05;81.26;96171.53;5065091;28;20032;-68
2021/03/28 02:10:55;;;;;;;42.63;21.70;;;;;;;0.03;81.15;96168.31;5065306;28;20553;-68
2021/03/28 02:13:51;;;;;;;36.33;19.35;;;;;;;0.03;81.01;96163.19;5065496;28;20049;-68
2021/03/28 02:16:24;;;;;;;33.45;19.30;;;;;;;0.04;80.76;96167.38;5065070;28;20053;-68
2021/03/28 02:18:57;;;;;;;41.03;21.30;;;;;;;-0.12;80.65;96154.25;5065188;28;20417;-68
2021/03/28 02:21:41;;;;;;;43.70;21.77;;;;;;;-0.10;80.41;96163.44;5063726;28;20036;-68
2021/03/28 02:24:38;;;;;;;37.83;21.13;;;;;;;-0.08;80.58;96173.53;5065015;28;20498;-69
2021/03/28 02:27:23;;;;;;;33.92;19.83;;;;;;;-0.12;80.46;96172.19;5063878;28;20048;-68
2021/03/28 02:30:06;;;;;;;38.67;22.90;;;;;;;-0.15;81.12;96159.66;5064991;28;20119;-68
2021/03/28 02:32:43;;;;;;;38.80;21.67;;;;;;;-0.10;81.32;96172.88;5064670;28;20083;-68
2021/03/28 02:35:35;;;;;;;38.35;20.10;;;;;;;-0.14;81.32;96172.31;5065941;28;20077;-68
2021/03/28 02:38:14;;;;;;;35.40;20.23;;;;;;;-0.17;81.34;96172.56;5068886;28;20037;-68
2021/03/28 02:40:53;;;;;;;43.25;21.50;;;;;;;-0.18;81.43;96176.09;5069166;28;20189;-68
2021/03/28 02:43:48;;;;;;;37.15;21.33;;;;;;;-0.16;81.63;96175.94;5068651;28;20044;-68
2021/03/28 02:46:39;;;;;;;41.63;22.98;;;;;;;-0.16;81.49;96188.75;5069923;28;20055;-67
2021/03/28 02:49:43;;;;;;;40.17;22.02;;;;;;;-0.19;81.84;96184.69;5068625;28;20041;-68
2021/03/28 02:52:27;;;;;;;43.13;23.33;;;;;;;-0.20;81.89;96189.03;5068450;28;20855;-67
2021/03/28 02:54:57;;;;;;;;;;;;;;;-0.17;82.57;96187.13;5068809;28;20124;-67
2021/03/28 02:57:33;;;;;;;41.45;23.60;;;;;;;-0.21;83.11;96191.72;5069371;28;19936;-67
2021/03/28 03:00:47;;;;;;;40.30;22.42;;;;;;;-0.21;83.11;96192.50;5067073;28;20052;-67
2021/03/28 03:03:47;;;;;;;47.80;24.05;;;;;;;-0.17;83.15;96194.81;5025669;28;20136;-68
2021/03/28 03:06:45;;;;;;;44.75;23.83;;;;;;;-0.18;83.15;96190.63;5067597;28;20050;-68
2021/03/28 03:09:42;;;;;;;47.90;26.30;;;;;;;-0.18;83.04;96190.63;5068255;28;20561;-68
2021/03/28 03:12:41;;;;;;;50.63;28.92;;;;;;;-0.22;83.25;96193.47;5068053;28;20037;-68
2021/03/28 03:15:29;;;;;;;72.00;30.65;;;;;;;-0.35;86.87;96192.06;5068018;28;20048;-68
2021/03/28 03:18:16;;;;;;;68.75;33.47;;;;;;;-0.32;86.07;96194.38;5067917;28;20502;-68
2021/03/28 03:21:38;;;;;;;70.63;33.35;;;;;;;-0.29;86.06;96199.22;5066548;28;20032;-67
2021/03/28 03:24:42;;;;;;;93.25;37.60;;;;;;;-0.26;86.15;96199.78;5067270;28;20528;-67
2021/03/28 03:27:17;;;;;;;77.53;33.85;;;;;;;-0.28;86.02;96211.09;5067640;28;20032;-68
2021/03/28 03:29:55;;;;;;;70.97;33.80;;;;;;;-0.26;85.76;96204.88;5066573;28;20047;-68
2021/03/28 03:32:59;;;;;;;61.55;32.10;;;;;;;-0.23;86.48;96209.75;5066818;28;20041;-68
2021/03/28 03:35:38;;;;;;;72.82;35.47;;;;;;;-0.18;86.55;96213.66;5067467;28;20040;-68
2021/03/28 03:38:30;;;;;;;85.28;38.47;;;;;;;-0.23;86.97;96220.00;5067636;28;20040;-67
2021/03/28 03:41:02;;;;;;;120.57;46.22;;;;;;;-0.20;86.06;96213.78;5067582;28;20048;-68
2021/03/28 03:43:43;;;;;;;91.00;38.70;;;;;;;-0.21;85.51;96223.25;5067587;28;20414;-68
2021/03/28 03:46:29;;;;;;;89.38;39.58;;;;;;;-0.21;84.49;96218.13;5067862;28;20048;-68
2021/03/28 03:49:06;;;;;;;;;;;;;;;-0.29;83.45;96225.66;5069765;28;20048;-68
2021/03/28 03:51:42;;;;;;;61.65;28.50;;;;;;;-0.39;82.55;96229.91;5067532;28;20394;-68
2021/03/28 03:54:30;;;;;;;53.72;30.85;;;;;;;-0.46;82.28;96234.72;5065991;28;20657;-68
2021/03/28 03:57:18;;;;;;;59.08;30.58;;;;;;;-0.50;81.98;96235.13;5067204;28;20066;-67
2021/03/28 04:00:12;;;;;;;61.83;32.20;;;;;;;-0.53;81.96;96232.81;5065891;28;20437;-67
2021/03/28 04:03:16;;;;;;;63.90;31.27;;;;;;;-0.58;81.81;96238.31;5067072;28;20032;-68
2021/03/28 04:06:11;;;;;;;60.97;32.33;;;;;;;-0.64;81.94;96237.06;5032243;28;20048;-68
2021/03/28 04:09:31;;;;;;;64.40;34.10;;;;;;;-0.66;82.14;96244.06;5066259;28;20040;-68
2021/03/28 04:12:18;;;;;;;66.70;34.45;;;;;;;-0.66;82.74;96249.19;5024874;28;20071;-67
2021/03/28 04:15:33;;;;;;;78.50;40.45;;;;;;;-0.68;83.15;96245.94;5024495;28;20073;-68
2021/03/28 04:18:12;;;;;;;72.18;40.08;;;;;;;-0.68;83.24;96253.63;5043066;28;20151;-68
2021/03/28 04:21:09;;;;;;;66.43;36.40;;;;;;;-0.67;83.75;96251.84;5065372;28;20047;-68
2021/03/28 04:23:39;;;;;;;58.33;31.35;;;;;;;-0.68;83.81;96256.16;5066355;28;20048;-68
2021/03/28 04:26:05;;;;;;;67.65;33.58;;;;;;;-0.66;84.35;96251.72;5066681;28;20041;-68
2021/03/28 04:28:49;;;;;;;58.40;30.85;;;;;;;-0.66;84.35;96256.84;5066732;28;20044;-68
2021/03/28 04:31:21;;;;;;;52.70;29.90;;;;;;;-0.66;83.86;96259.41;5065733;28;20033;-68
2021/03/28 04:34:07;;;;;;;51.53;27.58;;;;;;;-0.67;83.81;96262.91;5066177;28;20428;-68
2021/03/28 04:37:02;;;;;;;53.40;30.90;;;;;;;-0.67;83.76;96264.66;5066447;28;20048;-68
2021/03/28 04:40:10;;;;;;;54.38;27.38;;;;;;;-0.72;83.81;96259.94;5066005;28;20047;-68
2021/03/28 04:43:04;;;;;;;59.85;29.55;;;;;;;-0.65;85.05;96270.44;5043229;28;20127;-68
2021/03/28 04:45:41;;;;;;;58.28;30.30;;;;;;;-0.72;86.58;96270.16;5065257;28;20036;-69
2021/03/28 04:48:43;;;;;;;62.33;32.75;;;;;;;-0.60;86.44;96274.25;5066141;28;20041;-69
2021/03/28 04:51:15;;;;;;;84.85;36.83;;;;;;;-0.51;85.83;96284.69;5066026;28;20037;-69
2021/03/28 04:53:41;;;;;;;105.93;43.85;;;;;;;-0.44;85.75;96278.13;5065999;28;20037;-69
2021/03/28 04:56:26;;;;;;;71.40;37.85;;;;;;;-0.38;85.66;96282.72;5065555;28;20048;-69
2021/03/28 04:59:10;;;;;;;71.55;35.90;;;;;;;-0.31;85.44;96288.16;5066588;28;20131;-68
2021/03/28 05:01:58;;;;;;;61.20;30.40;;;;;;;-0.25;85.38;96288.47;5065995;28;20040;-68
2021/03/28 05:04:37;;;;;;;74.63;32.80;;;;;;;-0.20;85.66;96285.50;5065830;28;20041;-68
2021/03/28 05:07:13;;;;;;;59.53;33.00;;;;;;;-0.11;85.57;96291.59;5065514;28;20071;-69
2021/03/28 05:09:48;;;;;;;61.63;34.35;;;;;;;-0.04;85.87;96295.28;5067409;28;20036;-69
2021/03/28 05:12:44;;;;;;;65.80;33.65;;;;;;;0.07;86.34;96302.88;5065575;28;20044;-69
2021/03/28 05:15:26;;;;;;;61.40;31.08;;;;;;;0.21;87.01;96294.00;5065105;28;20123;-68
2021/03/28 05:18:07;;;;;;;54.53;30.90;;;;;;;0.34;88.70;96298.91;5065617;28;20039;-69
2021/03/28 05:20:58;;;;;;;60.70;32.30;;;;;;;0.50;88.72;96294.09;5063084;28;20040;-69
2021/03/28 05:23:42;;;;;;;59.22;32.65;;;;;;;0.65;88.39;96296.25;5066856;28;20833;-69
2021/03/28 05:26:15;;;;;;;66.38;33.90;;;;;;;0.84;88.83;96301.41;5068632;28;20053;-69
2021/03/28 05:28:57;;;;;;;61.70;38.88;;;;;;;1.00;88.83;96308.59;5065986;28;20058;-69
2021/03/28 05:32:03;;;;;;;76.45;39.63;;;;;;;1.16;88.76;96300.34;5065360;28;20058;-69
2021/03/28 05:34:56;;;;;;;;;;;;;;;1.33;89.93;96307.38;5065133;28;20421;-69
2021/03/28 05:37:47;;;;;;;63.80;30.73;;;;;;;1.51;89.32;96314.34;5065080;28;19927;-69
2021/03/28 05:40:36;;;;;;;60.95;31.88;;;;;;;1.72;88.83;96317.56;5065661;28;20036;-70
2021/03/28 05:43:53;;;;;;;59.58;33.65;;;;;;;1.92;88.55;96317.50;5064532;28;20050;-69
2021/03/28 05:46:48;;;;;;;67.45;34.70;;;;;;;2.05;87.04;96318.03;5042468;28;20044;-70
2021/03/28 05:49:36;;;;;;;62.28;36.22;;;;;;;1.96;85.92;96288.00;5064307;28;20040;-70
2021/03/28 05:52:23;;;;;;;77.20;42.47;;;;;;;2.32;84.97;96328.44;5065354;28;20136;-70
2021/03/28 05:54:56;;;;;;;75.47;38.28;;;;;;;2.40;84.39;96326.78;5063962;28;20056;-69
2021/03/28 05:57:47;;;;;;;73.75;43.17;;;;;;;2.42;83.59;96313.78;5064592;28;20033;-70
2021/03/28 06:00:31;;;;;;;83.97;47.10;;;;;;;2.49;83.43;96320.78;5063983;28;20132;-70
2021/03/28 06:03:35;;;;;;;87.93;45.95;;;;;;;2.66;83.02;96321.75;5065089;28;20036;-70
2021/03/28 06:06:29;;;;;;;79.40;36.75;;;;;;;2.72;84.93;96320.41;5063538;28;20043;-68
2021/03/28 06:09:23;;;;;;;111.50;48.95;;;;;;;2.84;84.50;96332.06;5064944;28;20048;-69
2021/03/28 06:12:10;;;;;;;63.33;33.88;;;;;;;3.03;83.24;96343.22;5068764;28;20041;-71
2021/03/28 06:14:45;;;;;;;61.08;30.77;;;;;;;3.08;81.98;96340.19;5068739;28;20053;-68
2021/03/28 06:17:14;;;;;;;58.22;32.33;;;;;;;3.25;81.07;96341.97;5068240;28;20545;-68
2021/03/28 06:20:10;;;;;;;64.50;33.38;;;;;;;3.40;80.97;96345.63;5069046;28;20441;-69
2021/03/28 06:22:46;;;;;;;58.40;32.65;;;;;;;3.50;80.86;96350.69;5067587;28;20047;-69
2021/03/28 06:25:13;;;;;;;54.13;32.42;;;;;;;3.69;79.98;96351.47;5068586;28;20469;-69
2021/03/28 06:28:14;;;;;;;61.22;33.72;;;;;;;3.79;80.23;96347.03;5067332;28;20040;-70
2021/03/28 06:30:50;;;;;;;66.20;35.00;;;;;;;4.00;78.59;96355.22;5067292;28;20482;-70
2021/03/28 06:33:44;;;;;;;61.40;36.05;;;;;;;4.22;78.06;96347.94;5069122;28;20058;-70
2021/03/28 06:36:47;;;;;;;60.90;36.63;;;;;;;4.37;76.46;96354.13;5067682;28;20083;-70
2021/03/28 06:39:47;;;;;;;59.47;34.03;;;;;;;4.50;76.56;96347.72;5068205;28;20115;-71
2021/03/28 06:42:37;;;;;;;50.35;30.65;;;;;;;4.62;75.91;96341.31;5068930;28;20048;-71
2021/03/28 06:45:32;;;;;;;58.47;30.58;;;;;;;4.70;76.01;96348.28;5068381;28;20063;-71
2021/03/28 06:48:20;;;;;;;50.70;30.88;;;;;;;4.74;75.11;96345.22;5067698;28;20848;-72
2021/03/28 06:51:06;;;;;;;51.90;30.55;;;;;;;4.89;74.66;96347.22;5067458;28;20056;-71
2021/03/28 06:53:58;;;;;;;50.42;29.25;;;;;;;4.95;74.75;96356.91;5051564;28;20517;-71
2021/03/28 06:56:27;;;;;;;50.47;30.00;;;;;;;5.08;73.77;96351.28;5068339;28;20048;-69
2021/03/28 06:59:15;;;;;;;64.95;36.63;;;;;;;5.17;73.39;96351.13;5069943;28;20402;-70
2021/03/28 07:02:15;;;;;;;52.70;30.73;;;;;;;5.30;73.31;96349.88;5068306;28;20041;-70
2021/03/28 07:05:21;;;;;;;56.15;33.13;;;;;;;5.39;73.71;96351.47;5069953;28;20097;-71
2021/03/28 07:07:50;;;;;;;48.60;28.58;;;;;;;5.60;71.85;96352.75;5067985;28;20044;-71
2021/03/28 07:10:26;;;;;;;44.13;23.55;;;;;;;5.69;68.05;96359.53;5070016;28;20051;-71
2021/03/28 07:13:23;;;;;;;44.67;25.48;;;;;;;5.75;66.84;96357.13;5069742;28;20036;-71
2021/03/28 07:16:14;;;;;;;41.85;25.40;;;;;;;5.93;67.40;96356.94;5068199;28;20047;-72
2021/03/28 07:19:05;;;;;;;40.70;23.73;;;;;;;6.11;67.30;96353.41;5068003;28;20525;-71
2021/03/28 07:21:31;;;;;;;44.60;25.30;;;;;;;6.25;65.81;96360.47;5064403;28;20413;-72
2021/03/28 07:24:08;;;;;;;49.35;29.48;;;;;;;6.45;67.00;96360.09;5068756;28;20055;-72
2021/03/28 07:26:37;;;;;;;40.28;25.65;;;;;;;6.73;67.41;96357.06;5066248;28;20119;-72
2021/03/28 07:29:41;;;;;;;49.35;25.08;;;;;;;6.89;64.81;96362.16;5066783;28;20527;-71
2021/03/28 07:32:49;;;;;;;46.13;26.27;;;;;;;7.07;64.43;96360.09;5065559;28;20032;-72
2021/03/28 07:35:47;;;;;;;41.78;25.48;;;;;;;7.25;64.43;96366.81;5066535;28;20052;-72
2021/03/28 07:38:51;;;;;;;40.08;24.95;;;;;;;7.44;64.45;96361.19;5066779;28;20395;-71
2021/03/28 07:41:43;;;;;;;39.58;22.60;;;;;;;7.37;64.20;96360.25;5067654;28;20044;-71
2021/03/28 07:44:22;;;;;;;37.22;22.98;;;;;;;7.49;63.21;96372.81;5065866;28;20052;-71
2021/03/28 07:47:07;;;;;;;41.42;25.70;;;;;;;7.51;63.95;96376.03;5066573;28;20046;-72
2021/03/28 07:49:33;;;;;;;35.63;23.33;;;;;;;7.65;63.45;96377.88;5066157;28;20140;-71
2021/03/28 07:52:05;;;;;;;36.83;21.80;;;;;;;7.72;60.31;96378.78;5066722;28;20033;-70
2021/03/28 07:54:54;;;;;;;35.25;21.23;;;;;;;7.98;60.21;96377.59;5066445;28;20053;-71
2021/03/28 07:57:42;;;;;;;40.63;20.52;;;;;;;8.17;57.76;96382.25;5066936;28;20067;-71
2021/03/28 08:00:20;;;;;;;39.80;22.02;;;;;;;8.29;59.48;96379.25;5062652;28;20060;-71
2021/03/28 08:03:20;;;;;;;37.58;23.17;;;;;;;8.30;59.93;96360.09;5067085;28;20032;-71
2021/03/28 08:06:05;;;;;;;37.30;21.80;;;;;;;8.52;59.57;96379.22;5069756;28;20064;-72
2021/03/28 08:08:53;;;;;;;38.20;20.90;;;;;;;8.61;58.80;96373.72;5064425;28;20498;-71
2021/03/28 08:11:47;;;;;;;32.47;18.58;;;;;;;8.67;59.01;96374.00;5064617;28;20032;-71
2021/03/28 08:14:40;;;;;;;37.83;21.25;;;;;;;8.90;58.62;96353.88;5068372;28;20052;-72
2021/03/28 08:17:21;;;;;;;33.72;19.98;;;;;;;9.22;58.08;96370.03;5067218;28;20040;-71
2021/03/28 08:20:12;;;;;;;34.80;20.25;;;;;;;9.37;57.61;96362.97;5066625;28;20067;-71
2021/03/28 08:22:51;;;;;;;29.42;18.52;;;;;;;9.54;56.88;96373.13;5063542;28;20033;-71
2021/03/28 08:25:36;;;;;;;30.58;17.40;;;;;;;9.67;56.06;96370.66;5066836;28;20124;-71
2021/03/28 08:28:08;;;;;;;30.73;18.40;;;;;;;9.80;55.56;96372.56;5067306;28;20116;-71
2021/03/28 08:30:43;;;;;;;31.38;17.35;;;;;;;10.01;55.52;96376.13;5064808;28;20064;-70
2021/03/28 08:33:32;;;;;;;34.45;18.30;;;;;;;10.29;56.15;96371.69;5064537;28;20048;-72
2021/03/28 08:36:10;;;;;;;27.67;15.55;;;;;;;10.55;53.27;96374.69;5066758;28;20460;-70
2021/03/28 08:38:55;;;;;;;26.77;15.77;;;;;;;10.78;52.22;96374.41;5065427;28;20036;-70
2021/03/28 08:41:54;;;;;;;25.63;14.57;;;;;;;10.87;50.15;96374.03;5066150;28;20103;-71
2021/03/28 08:44:56;;;;;;;27.48;15.88;;;;;;;10.94;51.90;96368.06;5065718;28;20057;-70
2021/03/28 08:47:59;;;;;;;28.77;16.30;;;;;;;11.22;50.66;96366.13;5065619;28;20064;-71
2021/03/28 08:50:50;;;;;;;39.85;19.17;;;;;;;11.51;50.97;96372.00;5065955;28;20055;-71
2021/03/28 08:53:44;;;;;;;29.17;19.20;;;;;;;11.75;49.78;96375.03;5066282;28;20418;-72
2021/03/28 08:56:47;;;;;;;34.95;16.38;;;;;;;11.86;49.75;96371.81;5065702;28;20071;-70
2021/03/28 08:59:36;;;;;;;32.92;18.10;;;;;;;11.92;49.37;96360.63;5065232;28;20689;-71
2021/03/28 09:02:05;;;;;;;38.88;20.42;;;;;;;12.10;48.67;96372.25;5063616;28;20044;-71
2021/03/28 09:05:01;;;;;;;31.10;17.98;;;;;;;12.29;47.52;96360.97;5064325;28;20060;-72
2021/03/28 09:07:48;;;;;;;30.83;17.02;;;;;;;12.57;47.18;96362.53;5065254;28;20032;-72
2021/03/28 09:10:40;;;;;;;23.83;13.75;;;;;;;12.68;45.56;96350.63;5065658;28;20060;-71
2021/03/28 09:13:15;;;;;;;26.98;14.25;;;;;;;12.79;46.06;96350.00;5065356;28;20036;-71
2021/03/28 09:15:44;;;;;;;22.95;14.95;;;;;;;12.91;46.27;96352.75;5063184;28;20142;-71
2021/03/28 09:18:37;;;;;;;26.52;14.43;;;;;;;12.98;45.96;96363.97;5064305;28;20051;-72
2021/03/28 09:21:31;;;;;;;25.42;15.43;;;;;;;12.98;45.68;96359.56;5065223;28;20056;-72
2021/03/28 09:24:21;;;;;;;26.63;14.48;;;;;;;13.15;45.67;96359.88;5064078;28;20828;-72
2021/03/28 09:27:05;;;;;;;24.65;15.75;;;;;;;13.38;45.76;96353.34;5036446;28;20529;-72
2021/03/28 09:29:43;;;;;;;;;;;;;;;13.53;45.93;96345.97;5065552;28;20147;-71
2021/03/28 09:32:46;;;;;;;24.20;15.43;;;;;;;13.51;47.00;96345.41;5065661;28;20123;-71
2021/03/28 09:35:50;;;;;;;26.05;15.52;;;;;;;13.53;46.42;96343.38;5064636;28;20044;-71
2021/03/28 09:38:54;;;;;;;21.30;14.18;;;;;;;13.55;46.44;96338.72;5066651;28;20115;-71
2021/03/28 09:41:20;;;;;;;28.17;14.10;;;;;;;13.58;46.63;96333.06;5067050;28;20076;-71
2021/03/28 09:44:28;;;;;;;28.48;14.38;;;;;;;13.73;46.31;96339.81;5063274;28;20078;-71
2021/03/28 09:47:38;;;;;;;18.35;12.13;;;;;;;14.21;44.49;96333.16;5065094;28;20039;-72
2021/03/28 09:50:22;;;;;;;20.10;12.07;;;;;;;14.65;44.17;96329.47;5066031;28;20129;-72
2021/03/28 09:52:59;;;;;;;19.38;10.73;;;;;;;15.21;42.38;96329.38;5064681;28;20426;-71
2021/03/28 09:55:51;;;;;;;17.20;10.45;;;;;;;15.72;41.31;96335.91;5063868;28;20059;-71
2021/03/28 09:58:45;;;;;;;13.35;10.15;;;;;;;16.15;40.78;96312.97;5064411;28;20484;-70
2021/03/28 10:01:27;;;;;;;17.77;11.18;;;;;;;16.19;39.79;96320.19;5058991;28;20124;-72
2021/03/28 10:04:19;;;;;;;21.25;11.27;;;;;;;16.08;41.05;96339.41;5063653;28;20545;-72
2021/03/28 10:07:01;;;;;;;16.75;11.57;;;;;;;15.27;42.26;96328.50;5065691;28;20445;-72
2021/03/28 10:09:38;;;;;;;24.35;12.32;;;;;;;14.75;44.03;96341.25;5065665;28;20124;-72
2021/03/28 10:12:17;;;;;;;25.20;17.05;;;;;;;14.27;45.82;96334.91;5065370;28;20036;-71
2021/03/28 10:14:56;;;;;;;21.65;14.90;;;;;;;14.31;45.70;96325.56;5064029;28;20064;-71
2021/03/28 10:17:40;;;;;;;26.80;16.90;;;;;;;14.34;45.42;96331.19;5063201;28;20056;-71
2021/03/28 10:20:35;;;;;;;27.35;16.75;;;;;;;14.89;45.17;96326.97;5064288;28;20052;-70
2021/03/28 10:23:38;;;;;;;25.58;13.48;;;;;;;15.49;42.55;96334.81;5064496;28;20409;-71
2021/03/28 10:26:28;;;;;;;36.35;17.13;;;;;;;15.72;41.31;96335.91;5064135;28;20056;-71
2021/03/28 10:29:18;;;;;;;21.42;11.80;;;;;;;15.80;41.46;96327.72;5067068;28;20041;-71
2021/03/28 10:32:18;;;;;;;14.93;11.20;;;;;;;15.92;41.43;96326.91;5066143;28;21665;-71
2021/03/28 10:34:58;;;;;;;20.65;12.05;;;;;;;15.56;41.14;96331.31;5062973;28;20057;-71
2021/03/28 10:37:49;;;;;;;15.40;11.30;;;;;;;15.22;42.43;96325.75;5064310;28;20032;-71
2021/03/28 10:40:38;;;;;;;15.85;10.98;;;;;;;15.24;44.24;96324.47;5063995;28;20102;-71
2021/03/28 10:43:16;;;;;;;20.10;12.82;;;;;;;15.63;45.32;96321.50;5064952;28;20514;-71
2021/03/28 10:46:32;;;;;;;19.35;12.25;;;;;;;16.06;45.30;96325.66;5066118;28;20484;-70
2021/03/28 10:49:17;;;;;;;17.40;10.20;;;;;;;16.18;43.03;96326.47;5040784;28;20052;-71
2021/03/28 10:51:47;;;;;;;19.92;12.45;;;;;;;16.30;42.55;96320.41;5065526;28;20044;-71
2021/03/28 10:54:50;;;;;;;28.05;12.02;;;;;;;16.10;43.82;96326.81;5065435;28;22573;-71
2021/03/28 10:57:51;;;;;;;19.88;11.23;;;;;;;15.88;44.04;96328.41;5068463;28;20490;-70
2021/03/28 11:00:24;;;;;;;21.83;12.35;;;;;;;16.33;44.97;96330.44;5067781;28;20044;-71
2021/03/28 11:03:09;;;;;;;27.52;11.98;;;;;;;16.96;44.98;96328.84;5067956;28;20037;-71
2021/03/28 11:05:35;;;;;;;19.10;11.55;;;;;;;17.02;44.31;96327.16;5068742;28;20128;-71
2021/03/28 11:08:31;;;;;;;34.58;12.82;;;;;;;17.06;45.85;96328.25;5069736;28;20418;-71
2021/03/28 11:11:35;;;;;;;21.98;12.80;;;;;;;17.14;44.38;96330.50;5067790;28;20068;-71
2021/03/28 11:14:23;;;;;;;26.63;14.65;;;;;;;16.91;46.13;96332.22;5068522;28;20040;-71
2021/03/28 11:17:19;;;;;;;25.10;13.55;;;;;;;16.91;45.44;96332.22;5069119;28;20500;-71
2021/03/28 11:20:00;;;;;;;20.83;12.65;;;;;;;16.60;45.04;96334.19;5067496;28;20049;-71
2021/03/28 11:22:40;;;;;;;29.67;12.35;;;;;;;17.04;44.24;96335.59;5067649;28;20065;-71
2021/03/28 11:25:18;;;;;;;22.65;14.57;;;;;;;17.46;44.28;96330.81;5068487;28;20480;-71
2021/03/28 11:27:54;;;;;;;19.63;14.27;;;;;;;17.44;44.32;96324.19;5068473;28;20052;-71
2021/03/28 11:30:33;;;;;;;28.08;14.38;;;;;;;17.20;45.84;96329.56;5070233;28;20048;-70
2021/03/28 11:33:01;;;;;;;30.70;15.80;;;;;;;17.35;45.82;96327.19;5067235;28;20040;-71
2021/03/28 11:35:53;;;;;;;24.58;13.45;;;;;;;17.00;45.66;96320.28;5068102;28;20445;-70
2021/03/28 11:38:19;;;;;;;22.45;14.00;;;;;;;16.66;46.79;96334.31;5062954;28;20055;-70
2021/03/28 11:41:11;;;;;;;29.65;14.23;;;;;;;16.62;47.93;96315.56;5060377;28;20102;-70
2021/03/28 11:43:52;;;;;;;29.10;15.82;;;;;;;17.10;46.43;96329.38;5061131;28;20040;-70
2021/03/28 11:46:32;;;;;;;24.45;15.10;;;;;;;16.54;46.44;96321.97;5069908;28;20051;-71
2021/03/28 11:48:58;;;;;;;26.30;13.88;;;;;;;16.14;47.64;96322.69;5068307;28;20051;-71
2021/03/28 11:51:35;;;;;;;23.63;16.40;;;;;;;15.93;48.47;96326.69;5066476;28;20044;-72
2021/03/28 11:54:12;;;;;;;35.72;16.25;;;;;;;16.09;48.83;96319.97;5068479;28;20119;-71
2021/03/28 11:56:48;;;;;;;21.60;14.15;;;;;;;16.45;47.00;96318.09;5067973;28;20028;-72
2021/03/28 11:59:19;;;;;;;29.75;16.55;;;;;;;16.48;46.26;96333.41;5067465;28;20422;-71
2021/03/28 12:01:55;;;;;;;33.08;16.98;;;;;;;16.47;46.82;96316.03;5067937;28;20120;-71
2021/03/28 12:04:33;;;;;;;19.02;14.55;;;;;;;16.68;46.33;96300.69;5068200;28;20095;-72
2021/03/28 12:07:34;;;;;;;24.70;14.32;;;;;;;16.57;45.21;96305.72;5067720;28;22265;-72
2021/03/28 12:10:01;;;;;;;42.40;16.25;;;;;;;16.33;46.77;96298.91;5068168;28;20043;-71
2021/03/28 12:12:37;;;;;;;26.02;16.23;;;;;;;16.18;45.98;96313.31;5067660;28;20634;-71
2021/03/28 12:15:41;;;;;;;31.02;16.30;;;;;;;16.23;45.62;96310.81;5067455;28;20044;-70
2021/03/28 12:18:22;;;;;;;25.08;15.85;;;;;;;16.39;45.62;96309.31;5070499;28;20115;-71
2021/03/28 12:20:58;;;;;;;28.98;16.48;;;;;;;16.23;46.01;96305.56;5067493;28;20051;-70
2021/03/28 12:23:27;;;;;;;33.85;17.67;;;;;;;16.04;46.62;96307.53;5064950;28;20569;-70
2021/03/28 12:26:31;;;;;;;38.58;16.95;;;;;;;16.14;46.65;96298.25;5067623;28;20071;-71
2021/03/28 12:29:06;;;;;;;26.13;16.60;;;;;;;16.49;45.35;96292.94;5067551;28;20043;-71
2021/03/28 12:31:35;;;;;;;36.67;17.48;;;;;;;16.14;45.33;96295.63;5066032;28;20055;-72
2021/03/28 12:34:07;;;;;;;38.13;18.33;;;;;;;15.59;48.15;96299.34;5067145;28;20135;-71
2021/03/28 12:36:50;;;;;;;29.65;18.48;;;;;;;15.01;49.06;96309.44;5065315;28;20502;-71
2021/03/28 12:39:25;;;;;;;47.55;17.42;;;;;;;14.78;50.24;96293.63;5066901;28;20043;-71
2021/03/28 12:42:21;;;;;;;29.35;18.13;;;;;;;15.15;49.25;96293.53;5066928;28;20047;-71
2021/03/28 12:44:52;;;;;;;31.15;17.77;;;;;;;14.92;48.98;96289.81;5065672;28;20057;-71
2021/03/28 12:47:31;;;;;;;27.90;13.80;;;;;;;15.39;47.54;96289.94;5066477;28;20048;-71